Air Park, Nebraska
Current Conditions -  °F | °C
As of 7:54 AM on Wednesday 22 Oct 2014 (Local Time) from KLNK Reporting Station
Clear Clear  
Wind Chill: 53°   Ceiling: Unl
Heat Index: 53°   Visibility: 10mi
Dew Point: 44°   Wind: 14mph
Humidity: 71%   Direction: 160°SSE
Pressure: 30.08"   Gusts: NA
Location:  40.8731°N, 96.8015°W
Report Text: KLNK 221254Z 16012KT 10SM CLR 12/07 A3008 RMK AO2 SLP184 T01170067
Loading
Personal Weather Stations






























Interactive Weather Map
Tropical Storm Tracking
New forecast layout! Learn more

10-Day Weather Forecast

Advertisements
Track Severe Weather on mobile